sensor_id;sensor_type;location;lat;lon;timestamp;P1;durP1;ratioP1;P2;durP2;ratioP2
82374;SDS011;72005;50.496;15.798;2024-01-25T00:01:34;9.45;;;2.08;;
82374;SDS011;72005;50.496;15.798;2024-01-25T00:04:00;9.60;;;1.60;;
82374;SDS011;72005;50.496;15.798;2024-01-25T00:06:26;7.32;;;1.67;;
82374;SDS011;72005;50.496;15.798;2024-01-25T00:08:51;8.68;;;1.40;;
82374;SDS011;72005;50.496;15.798;2024-01-25T00:11:18;9.35;;;1.83;;
82374;SDS011;72005;50.496;15.798;2024-01-25T00:13:43;11.52;;;1.67;;
82374;SDS011;72005;50.496;15.798;2024-01-25T00:16:09;6.85;;;1.40;;
82374;SDS011;72005;50.496;15.798;2024-01-25T00:18:35;10.93;;;1.27;;
82374;SDS011;72005;50.496;15.798;2024-01-25T00:21:00;10.60;;;2.55;;
82374;SDS011;72005;50.496;15.798;2024-01-25T00:23:26;8.50;;;1.60;;
82374;SDS011;72005;50.496;15.798;2024-01-25T00:25:53;9.75;;;1.70;;
82374;SDS011;72005;50.496;15.798;2024-01-25T00:28:18;10.32;;;1.40;;
82374;SDS011;72005;50.496;15.798;2024-01-25T00:30:44;13.18;;;1.58;;
82374;SDS011;72005;50.496;15.798;2024-01-25T00:33:10;12.35;;;2.10;;
82374;SDS011;72005;50.496;15.798;2024-01-25T00:35:36;10.98;;;2.30;;
82374;SDS011;72005;50.496;15.798;2024-01-25T00:38:02;4.75;;;1.55;;
82374;SDS011;72005;50.496;15.798;2024-01-25T00:40:28;9.32;;;1.90;;
82374;SDS011;72005;50.496;15.798;2024-01-25T00:42:54;7.93;;;1.90;;
82374;SDS011;72005;50.496;15.798;2024-01-25T00:45:21;8.50;;;1.77;;
82374;SDS011;72005;50.496;15.798;2024-01-25T00:47:47;10.68;;;1.88;;
82374;SDS011;72005;50.496;15.798;2024-01-25T00:50:14;10.30;;;2.10;;
82374;SDS011;72005;50.496;15.798;2024-01-25T00:52:43;8.38;;;2.00;;
82374;SDS011;72005;50.496;15.798;2024-01-25T00:55:10;12.68;;;1.80;;
82374;SDS011;72005;50.496;15.798;2024-01-25T00:57:36;11.05;;;2.00;;
82374;SDS011;72005;50.496;15.798;2024-01-25T01:00:02;5.13;;;1.40;;
82374;SDS011;72005;50.496;15.798;2024-01-25T01:02:30;7.03;;;1.40;;
82374;SDS011;72005;50.496;15.798;2024-01-25T01:05:01;9.50;;;1.63;;
82374;SDS011;72005;50.496;15.798;2024-01-25T01:07:27;8.60;;;1.90;;
82374;SDS011;72005;50.496;15.798;2024-01-25T01:09:53;8.73;;;1.85;;
82374;SDS011;72005;50.496;15.798;2024-01-25T01:12:19;8.23;;;1.55;;
82374;SDS011;72005;50.496;15.798;2024-01-25T01:14:45;11.27;;;1.70;;
82374;SDS011;72005;50.496;15.798;2024-01-25T01:17:10;7.50;;;1.83;;
82374;SDS011;72005;50.496;15.798;2024-01-25T01:19:36;8.02;;;1.58;;
82374;SDS011;72005;50.496;15.798;2024-01-25T01:22:02;11.15;;;1.63;;
82374;SDS011;72005;50.496;15.798;2024-01-25T01:24:27;9.65;;;1.70;;
82374;SDS011;72005;50.496;15.798;2024-01-25T01:26:53;8.73;;;1.75;;
82374;SDS011;72005;50.496;15.798;2024-01-25T01:29:19;8.48;;;1.65;;
82374;SDS011;72005;50.496;15.798;2024-01-25T01:31:45;9.15;;;1.45;;
82374;SDS011;72005;50.496;15.798;2024-01-25T01:34:11;9.05;;;1.40;;
82374;SDS011;72005;50.496;15.798;2024-01-25T01:36:43;6.22;;;1.40;;
82374;SDS011;72005;50.496;15.798;2024-01-25T01:39:09;6.32;;;1.15;;
82374;SDS011;72005;50.496;15.798;2024-01-25T01:41:35;7.80;;;1.65;;
82374;SDS011;72005;50.496;15.798;2024-01-25T01:44:01;11.48;;;1.50;;
82374;SDS011;72005;50.496;15.798;2024-01-25T01:48:59;12.25;;;2.10;;
82374;SDS011;72005;50.496;15.798;2024-01-25T01:51:25;8.93;;;2.17;;
82374;SDS011;72005;50.496;15.798;2024-01-25T01:53:51;9.85;;;1.60;;
82374;SDS011;72005;50.496;15.798;2024-01-25T01:56:18;6.95;;;1.50;;
82374;SDS011;72005;50.496;15.798;2024-01-25T01:58:45;12.13;;;2.13;;
82374;SDS011;72005;50.496;15.798;2024-01-25T02:01:13;9.18;;;2.03;;
82374;SDS011;72005;50.496;15.798;2024-01-25T02:03:39;8.38;;;1.90;;
82374;SDS011;72005;50.496;15.798;2024-01-25T02:06:06;10.38;;;1.55;;
82374;SDS011;72005;50.496;15.798;2024-01-25T02:08:32;8.93;;;2.17;;
82374;SDS011;72005;50.496;15.798;2024-01-25T02:10:58;6.75;;;1.50;;
82374;SDS011;72005;50.496;15.798;2024-01-25T02:13:24;9.77;;;1.80;;
82374;SDS011;72005;50.496;15.798;2024-01-25T02:15:49;9.80;;;1.67;;
82374;SDS011;72005;50.496;15.798;2024-01-25T02:18:15;6.07;;;1.50;;
82374;SDS011;72005;50.496;15.798;2024-01-25T02:20:41;13.77;;;1.60;;
82374;SDS011;72005;50.496;15.798;2024-01-25T02:23:07;6.80;;;1.67;;
82374;SDS011;72005;50.496;15.798;2024-01-25T02:25:32;7.97;;;2.00;;
82374;SDS011;72005;50.496;15.798;2024-01-25T02:27:58;5.95;;;2.10;;
82374;SDS011;72005;50.496;15.798;2024-01-25T02:30:24;11.73;;;1.80;;
82374;SDS011;72005;50.496;15.798;2024-01-25T02:32:50;11.40;;;2.65;;
82374;SDS011;72005;50.496;15.798;2024-01-25T02:35:15;9.00;;;1.33;;
82374;SDS011;72005;50.496;15.798;2024-01-25T02:37:41;9.68;;;1.48;;
82374;SDS011;72005;50.496;15.798;2024-01-25T02:40:07;10.38;;;1.55;;
82374;SDS011;72005;50.496;15.798;2024-01-25T02:42:33;8.23;;;1.50;;
82374;SDS011;72005;50.496;15.798;2024-01-25T02:44:59;11.30;;;1.60;;
82374;SDS011;72005;50.496;15.798;2024-01-25T02:47:25;8.38;;;1.45;;
82374;SDS011;72005;50.496;15.798;2024-01-25T02:49:50;8.95;;;1.90;;
82374;SDS011;72005;50.496;15.798;2024-01-25T02:52:16;9.75;;;1.70;;
82374;SDS011;72005;50.496;15.798;2024-01-25T02:54:41;7.75;;;1.42;;
82374;SDS011;72005;50.496;15.798;2024-01-25T02:57:07;11.55;;;1.95;;
82374;SDS011;72005;50.496;15.798;2024-01-25T02:59:33;9.40;;;1.70;;
82374;SDS011;72005;50.496;15.798;2024-01-25T03:01:59;9.70;;;1.77;;
82374;SDS011;72005;50.496;15.798;2024-01-25T03:04:24;14.25;;;2.15;;
82374;SDS011;72005;50.496;15.798;2024-01-25T03:06:50;9.77;;;2.00;;
82374;SDS011;72005;50.496;15.798;2024-01-25T03:09:16;12.57;;;2.33;;
82374;SDS011;72005;50.496;15.798;2024-01-25T03:11:42;6.47;;;1.65;;
82374;SDS011;72005;50.496;15.798;2024-01-25T03:14:07;16.95;;;2.03;;
82374;SDS011;72005;50.496;15.798;2024-01-25T03:16:33;12.00;;;2.38;;
82374;SDS011;72005;50.496;15.798;2024-01-25T03:18:59;13.90;;;2.05;;
82374;SDS011;72005;50.496;15.798;2024-01-25T03:21:24;7.30;;;1.75;;
82374;SDS011;72005;50.496;15.798;2024-01-25T03:23:50;9.68;;;2.00;;
82374;SDS011;72005;50.496;15.798;2024-01-25T03:26:17;11.77;;;2.30;;
82374;SDS011;72005;50.496;15.798;2024-01-25T03:28:43;12.50;;;1.80;;
82374;SDS011;72005;50.496;15.798;2024-01-25T03:31:09;10.52;;;2.22;;
82374;SDS011;72005;50.496;15.798;2024-01-25T03:33:34;6.50;;;1.52;;
82374;SDS011;72005;50.496;15.798;2024-01-25T03:36:03;10.50;;;2.47;;
82374;SDS011;72005;50.496;15.798;2024-01-25T03:38:30;7.57;;;1.67;;
82374;SDS011;72005;50.496;15.798;2024-01-25T03:40:56;9.07;;;2.00;;
82374;SDS011;72005;50.496;15.798;2024-01-25T03:43:23;8.00;;;1.45;;
82374;SDS011;72005;50.496;15.798;2024-01-25T03:45:49;7.38;;;1.75;;
82374;SDS011;72005;50.496;15.798;2024-01-25T03:48:15;6.00;;;1.40;;
82374;SDS011;72005;50.496;15.798;2024-01-25T03:50:41;7.30;;;1.50;;
82374;SDS011;72005;50.496;15.798;2024-01-25T03:53:07;6.45;;;1.35;;
82374;SDS011;72005;50.496;15.798;2024-01-25T03:55:32;10.55;;;1.40;;
82374;SDS011;72005;50.496;15.798;2024-01-25T03:57:58;8.20;;;1.50;;
82374;SDS011;72005;50.496;15.798;2024-01-25T04:00:24;5.38;;;1.30;;
82374;SDS011;72005;50.496;15.798;2024-01-25T04:02:50;7.65;;;1.42;;
82374;SDS011;72005;50.496;15.798;2024-01-25T04:05:16;7.88;;;1.63;;
82374;SDS011;72005;50.496;15.798;2024-01-25T04:07:42;5.20;;;1.73;;
82374;SDS011;72005;50.496;15.798;2024-01-25T04:10:08;10.68;;;1.40;;
82374;SDS011;72005;50.496;15.798;2024-01-25T04:12:34;7.93;;;1.27;;
82374;SDS011;72005;50.496;15.798;2024-01-25T04:15:00;11.48;;;1.60;;
82374;SDS011;72005;50.496;15.798;2024-01-25T04:17:25;4.53;;;1.30;;
82374;SDS011;72005;50.496;15.798;2024-01-25T04:19:51;11.65;;;2.15;;
82374;SDS011;72005;50.496;15.798;2024-01-25T04:22:17;10.30;;;1.40;;
82374;SDS011;72005;50.496;15.798;2024-01-25T04:24:43;12.57;;;2.05;;
82374;SDS011;72005;50.496;15.798;2024-01-25T04:27:09;5.05;;;1.50;;
82374;SDS011;72005;50.496;15.798;2024-01-25T04:29:39;12.25;;;1.80;;
82374;SDS011;72005;50.496;15.798;2024-01-25T04:32:06;10.82;;;1.98;;
82374;SDS011;72005;50.496;15.798;2024-01-25T04:34:33;8.88;;;1.35;;
82374;SDS011;72005;50.496;15.798;2024-01-25T04:36:58;12.50;;;2.15;;
82374;SDS011;72005;50.496;15.798;2024-01-25T04:39:24;8.85;;;1.95;;
82374;SDS011;72005;50.496;15.798;2024-01-25T04:41:50;8.90;;;2.17;;
82374;SDS011;72005;50.496;15.798;2024-01-25T04:44:16;7.40;;;1.42;;
82374;SDS011;72005;50.496;15.798;2024-01-25T04:46:41;10.00;;;1.85;;
82374;SDS011;72005;50.496;15.798;2024-01-25T04:49:07;9.00;;;1.90;;
82374;SDS011;72005;50.496;15.798;2024-01-25T04:51:33;7.30;;;1.95;;
82374;SDS011;72005;50.496;15.798;2024-01-25T04:53:59;8.93;;;1.85;;
82374;SDS011;72005;50.496;15.798;2024-01-25T04:56:24;9.13;;;1.75;;
82374;SDS011;72005;50.496;15.798;2024-01-25T04:58:50;7.13;;;1.40;;
82374;SDS011;72005;50.496;15.798;2024-01-25T05:01:16;6.82;;;1.42;;
82374;SDS011;72005;50.496;15.798;2024-01-25T05:03:42;7.35;;;1.42;;
82374;SDS011;72005;50.496;15.798;2024-01-25T05:06:07;7.28;;;1.55;;
82374;SDS011;72005;50.496;15.798;2024-01-25T05:08:33;12.52;;;2.33;;
82374;SDS011;72005;50.496;15.798;2024-01-25T05:10:59;8.23;;;1.60;;
82374;SDS011;72005;50.496;15.798;2024-01-25T05:13:25;5.20;;;1.13;;
82374;SDS011;72005;50.496;15.798;2024-01-25T05:15:53;7.18;;;1.60;;
82374;SDS011;72005;50.496;15.798;2024-01-25T05:18:19;7.45;;;1.55;;
82374;SDS011;72005;50.496;15.798;2024-01-25T05:20:44;9.50;;;2.08;;
82374;SDS011;72005;50.496;15.798;2024-01-25T05:23:10;7.70;;;1.52;;
82374;SDS011;72005;50.496;15.798;2024-01-25T05:25:36;8.07;;;1.60;;
82374;SDS011;72005;50.496;15.798;2024-01-25T05:28:02;7.53;;;1.30;;
82374;SDS011;72005;50.496;15.798;2024-01-25T05:30:28;9.60;;;1.67;;
82374;SDS011;72005;50.496;15.798;2024-01-25T05:32:53;5.97;;;1.38;;
82374;SDS011;72005;50.496;15.798;2024-01-25T05:35:19;7.90;;;2.08;;
82374;SDS011;72005;50.496;15.798;2024-01-25T05:37:46;5.78;;;1.45;;
82374;SDS011;72005;50.496;15.798;2024-01-25T05:40:11;4.80;;;1.20;;
82374;SDS011;72005;50.496;15.798;2024-01-25T05:42:38;3.75;;;1.05;;
82374;SDS011;72005;50.496;15.798;2024-01-25T05:45:05;6.82;;;1.45;;
82374;SDS011;72005;50.496;15.798;2024-01-25T05:47:31;7.60;;;1.42;;
82374;SDS011;72005;50.496;15.798;2024-01-25T05:49:57;11.20;;;1.92;;
82374;SDS011;72005;50.496;15.798;2024-01-25T05:52:23;10.85;;;1.45;;
82374;SDS011;72005;50.496;15.798;2024-01-25T05:54:49;7.80;;;1.70;;
82374;SDS011;72005;50.496;15.798;2024-01-25T05:57:15;9.95;;;1.38;;
82374;SDS011;72005;50.496;15.798;2024-01-25T05:59:42;5.70;;;1.50;;
82374;SDS011;72005;50.496;15.798;2024-01-25T06:02:08;8.15;;;1.25;;
82374;SDS011;72005;50.496;15.798;2024-01-25T06:04:34;5.22;;;1.27;;
82374;SDS011;72005;50.496;15.798;2024-01-25T06:07:00;6.70;;;1.20;;
82374;SDS011;72005;50.496;15.798;2024-01-25T06:09:26;10.75;;;1.70;;
82374;SDS011;72005;50.496;15.798;2024-01-25T06:11:51;6.00;;;1.40;;
82374;SDS011;72005;50.496;15.798;2024-01-25T06:14:17;14.55;;;1.67;;
82374;SDS011;72005;50.496;15.798;2024-01-25T06:16:43;7.05;;;1.52;;
82374;SDS011;72005;50.496;15.798;2024-01-25T06:19:10;5.10;;;1.10;;
82374;SDS011;72005;50.496;15.798;2024-01-25T06:21:36;8.07;;;1.50;;
82374;SDS011;72005;50.496;15.798;2024-01-25T06:24:05;5.68;;;1.25;;
82374;SDS011;72005;50.496;15.798;2024-01-25T06:26:32;8.07;;;1.65;;
82374;SDS011;72005;50.496;15.798;2024-01-25T06:28:58;6.18;;;1.27;;
82374;SDS011;72005;50.496;15.798;2024-01-25T06:31:24;8.02;;;1.60;;
82374;SDS011;72005;50.496;15.798;2024-01-25T06:33:50;6.07;;;2.00;;
82374;SDS011;72005;50.496;15.798;2024-01-25T06:36:18;5.78;;;1.20;;
82374;SDS011;72005;50.496;15.798;2024-01-25T06:38:44;9.95;;;2.25;;
82374;SDS011;72005;50.496;15.798;2024-01-25T06:41:10;6.63;;;1.45;;
82374;SDS011;72005;50.496;15.798;2024-01-25T06:43:36;5.72;;;1.70;;
82374;SDS011;72005;50.496;15.798;2024-01-25T06:46:02;6.53;;;1.40;;
82374;SDS011;72005;50.496;15.798;2024-01-25T06:48:27;13.15;;;1.88;;
82374;SDS011;72005;50.496;15.798;2024-01-25T06:50:53;7.22;;;1.52;;
82374;SDS011;72005;50.496;15.798;2024-01-25T06:53:20;6.78;;;1.55;;
82374;SDS011;72005;50.496;15.798;2024-01-25T06:55:46;4.63;;;1.20;;
82374;SDS011;72005;50.496;15.798;2024-01-25T06:58:12;12.30;;;1.92;;
82374;SDS011;72005;50.496;15.798;2024-01-25T07:00:38;10.63;;;2.50;;
82374;SDS011;72005;50.496;15.798;2024-01-25T07:03:05;8.07;;;1.67;;
82374;SDS011;72005;50.496;15.798;2024-01-25T07:05:31;3.35;;;1.20;;
82374;SDS011;72005;50.496;15.798;2024-01-25T07:07:58;11.98;;;1.58;;
82374;SDS011;72005;50.496;15.798;2024-01-25T07:10:25;11.35;;;1.60;;
82374;SDS011;72005;50.496;15.798;2024-01-25T07:12:50;10.48;;;2.20;;
82374;SDS011;72005;50.496;15.798;2024-01-25T07:15:17;16.45;;;1.98;;
82374;SDS011;72005;50.496;15.798;2024-01-25T07:17:43;10.50;;;2.22;;
82374;SDS011;72005;50.496;15.798;2024-01-25T07:20:09;8.27;;;2.05;;
82374;SDS011;72005;50.496;15.798;2024-01-25T07:22:35;9.15;;;2.35;;
82374;SDS011;72005;50.496;15.798;2024-01-25T07:25:01;10.45;;;2.30;;
82374;SDS011;72005;50.496;15.798;2024-01-25T07:27:27;6.35;;;1.58;;
82374;SDS011;72005;50.496;15.798;2024-01-25T07:29:53;5.72;;;1.75;;
82374;SDS011;72005;50.496;15.798;2024-01-25T07:32:19;12.50;;;1.95;;
82374;SDS011;72005;50.496;15.798;2024-01-25T07:34:45;9.15;;;1.77;;
82374;SDS011;72005;50.496;15.798;2024-01-25T07:37:12;11.60;;;2.05;;
82374;SDS011;72005;50.496;15.798;2024-01-25T07:39:39;8.15;;;1.90;;
82374;SDS011;72005;50.496;15.798;2024-01-25T07:42:04;10.15;;;1.90;;
82374;SDS011;72005;50.496;15.798;2024-01-25T07:44:30;11.15;;;2.85;;
82374;SDS011;72005;50.496;15.798;2024-01-25T07:46:56;6.20;;;1.30;;
82374;SDS011;72005;50.496;15.798;2024-01-25T07:49:22;8.82;;;1.70;;
82374;SDS011;72005;50.496;15.798;2024-01-25T07:51:47;8.10;;;1.65;;
82374;SDS011;72005;50.496;15.798;2024-01-25T07:54:14;10.73;;;2.55;;
82374;SDS011;72005;50.496;15.798;2024-01-25T07:56:40;5.32;;;1.63;;
82374;SDS011;72005;50.496;15.798;2024-01-25T07:59:05;9.30;;;1.60;;
82374;SDS011;72005;50.496;15.798;2024-01-25T08:01:31;11.13;;;2.20;;
82374;SDS011;72005;50.496;15.798;2024-01-25T08:03:57;11.73;;;2.92;;
82374;SDS011;72005;50.496;15.798;2024-01-25T08:06:25;12.32;;;2.50;;
82374;SDS011;72005;50.496;15.798;2024-01-25T08:08:52;14.60;;;2.67;;
82374;SDS011;72005;50.496;15.798;2024-01-25T08:11:18;32.38;;;15.55;;
82374;SDS011;72005;50.496;15.798;2024-01-25T08:13:46;17.05;;;5.88;;
82374;SDS011;72005;50.496;15.798;2024-01-25T08:16:13;11.48;;;3.00;;
82374;SDS011;72005;50.496;15.798;2024-01-25T08:18:39;26.08;;;7.75;;
82374;SDS011;72005;50.496;15.798;2024-01-25T08:21:05;17.38;;;4.68;;
82374;SDS011;72005;50.496;15.798;2024-01-25T08:23:31;13.95;;;3.97;;
82374;SDS011;72005;50.496;15.798;2024-01-25T08:25:57;19.65;;;7.47;;
82374;SDS011;72005;50.496;15.798;2024-01-25T08:28:23;31.73;;;10.73;;
82374;SDS011;72005;50.496;15.798;2024-01-25T08:30:48;25.48;;;7.45;;
82374;SDS011;72005;50.496;15.798;2024-01-25T08:33:14;19.75;;;7.40;;
82374;SDS011;72005;50.496;15.798;2024-01-25T08:35:40;14.93;;;4.13;;
82374;SDS011;72005;50.496;15.798;2024-01-25T08:38:06;22.63;;;8.35;;
82374;SDS011;72005;50.496;15.798;2024-01-25T08:40:32;27.52;;;7.82;;
82374;SDS011;72005;50.496;15.798;2024-01-25T08:42:59;24.92;;;7.93;;
82374;SDS011;72005;50.496;15.798;2024-01-25T08:45:25;22.88;;;7.82;;
82374;SDS011;72005;50.496;15.798;2024-01-25T08:47:51;10.35;;;3.33;;
82374;SDS011;72005;50.496;15.798;2024-01-25T08:50:17;12.48;;;2.95;;
82374;SDS011;72005;50.496;15.798;2024-01-25T08:52:43;8.90;;;2.72;;
82374;SDS011;72005;50.496;15.798;2024-01-25T08:55:09;14.15;;;2.70;;
82374;SDS011;72005;50.496;15.798;2024-01-25T08:57:38;8.70;;;1.90;;
82374;SDS011;72005;50.496;15.798;2024-01-25T09:00:05;8.23;;;2.80;;
82374;SDS011;72005;50.496;15.798;2024-01-25T09:02:36;8.68;;;1.83;;
82374;SDS011;72005;50.496;15.798;2024-01-25T09:05:02;9.75;;;2.63;;
82374;SDS011;72005;50.496;15.798;2024-01-25T09:07:29;9.57;;;1.98;;
82374;SDS011;72005;50.496;15.798;2024-01-25T09:09:55;8.65;;;2.17;;
82374;SDS011;72005;50.496;15.798;2024-01-25T09:12:21;7.22;;;2.05;;
82374;SDS011;72005;50.496;15.798;2024-01-25T09:14:46;9.27;;;2.08;;
82374;SDS011;72005;50.496;15.798;2024-01-25T09:17:12;10.05;;;2.58;;
82374;SDS011;72005;50.496;15.798;2024-01-25T09:19:39;5.80;;;1.70;;
82374;SDS011;72005;50.496;15.798;2024-01-25T09:22:06;4.05;;;1.70;;
82374;SDS011;72005;50.496;15.798;2024-01-25T09:24:33;11.25;;;2.58;;
82374;SDS011;72005;50.496;15.798;2024-01-25T09:27:01;8.68;;;1.65;;
82374;SDS011;72005;50.496;15.798;2024-01-25T09:29:27;8.07;;;1.80;;
82374;SDS011;72005;50.496;15.798;2024-01-25T09:31:54;10.13;;;2.40;;
82374;SDS011;72005;50.496;15.798;2024-01-25T09:34:19;6.90;;;1.70;;
82374;SDS011;72005;50.496;15.798;2024-01-25T09:36:47;11.80;;;1.77;;
82374;SDS011;72005;50.496;15.798;2024-01-25T09:39:15;9.40;;;2.10;;
82374;SDS011;72005;50.496;15.798;2024-01-25T09:41:44;8.80;;;2.00;;
82374;SDS011;72005;50.496;15.798;2024-01-25T09:44:11;19.95;;;4.57;;
82374;SDS011;72005;50.496;15.798;2024-01-25T09:46:42;7.57;;;1.95;;
82374;SDS011;72005;50.496;15.798;2024-01-25T09:49:11;7.10;;;2.33;;
82374;SDS011;72005;50.496;15.798;2024-01-25T09:51:39;7.45;;;1.90;;
82374;SDS011;72005;50.496;15.798;2024-01-25T09:54:06;11.25;;;2.63;;
82374;SDS011;72005;50.496;15.798;2024-01-25T09:56:33;7.40;;;2.20;;
82374;SDS011;72005;50.496;15.798;2024-01-25T09:59:00;7.40;;;2.85;;
82374;SDS011;72005;50.496;15.798;2024-01-25T10:01:27;9.98;;;2.80;;
82374;SDS011;72005;50.496;15.798;2024-01-25T10:03:53;11.88;;;2.88;;
82374;SDS011;72005;50.496;15.798;2024-01-25T10:06:23;10.20;;;2.75;;
82374;SDS011;72005;50.496;15.798;2024-01-25T10:08:49;8.82;;;2.33;;
82374;SDS011;72005;50.496;15.798;2024-01-25T10:11:15;11.65;;;5.28;;
82374;SDS011;72005;50.496;15.798;2024-01-25T10:13:41;15.75;;;5.47;;
82374;SDS011;72005;50.496;15.798;2024-01-25T10:16:15;14.77;;;3.53;;
82374;SDS011;72005;50.496;15.798;2024-01-25T10:18:42;26.40;;;7.32;;
82374;SDS011;72005;50.496;15.798;2024-01-25T10:21:09;62.90;;;21.67;;
82374;SDS011;72005;50.496;15.798;2024-01-25T10:23:36;32.35;;;13.95;;
82374;SDS011;72005;50.496;15.798;2024-01-25T10:26:02;44.17;;;17.65;;
82374;SDS011;72005;50.496;15.798;2024-01-25T10:28:28;64.45;;;28.08;;
82374;SDS011;72005;50.496;15.798;2024-01-25T10:30:56;35.65;;;17.67;;
82374;SDS011;72005;50.496;15.798;2024-01-25T10:33:25;32.67;;;13.73;;
82374;SDS011;72005;50.496;15.798;2024-01-25T10:35:55;20.67;;;10.32;;
82374;SDS011;72005;50.496;15.798;2024-01-25T10:38:28;8.68;;;3.65;;
82374;SDS011;72005;50.496;15.798;2024-01-25T10:40:57;25.83;;;12.35;;
82374;SDS011;72005;50.496;15.798;2024-01-25T10:43:27;69.65;;;34.20;;
82374;SDS011;72005;50.496;15.798;2024-01-25T10:45:56;23.70;;;10.65;;
82374;SDS011;72005;50.496;15.798;2024-01-25T10:48:24;26.35;;;11.52;;
82374;SDS011;72005;50.496;15.798;2024-01-25T10:50:55;49.10;;;23.35;;
82374;SDS011;72005;50.496;15.798;2024-01-25T10:53:22;22.33;;;10.93;;
82374;SDS011;72005;50.496;15.798;2024-01-25T10:55:50;20.25;;;10.50;;
82374;SDS011;72005;50.496;15.798;2024-01-25T10:58:16;18.75;;;10.00;;
82374;SDS011;72005;50.496;15.798;2024-01-25T11:00:52;11.90;;;5.88;;
82374;SDS011;72005;50.496;15.798;2024-01-25T11:03:25;10.07;;;2.72;;
82374;SDS011;72005;50.496;15.798;2024-01-25T11:06:09;13.77;;;6.15;;
82374;SDS011;72005;50.496;15.798;2024-01-25T11:08:35;10.68;;;2.85;;
82374;SDS011;72005;50.496;15.798;2024-01-25T11:11:10;16.02;;;5.00;;
82374;SDS011;72005;50.496;15.798;2024-01-25T11:13:38;7.72;;;3.42;;
82374;SDS011;72005;50.496;15.798;2024-01-25T11:16:16;20.70;;;9.15;;
82374;SDS011;72005;50.496;15.798;2024-01-25T11:18:52;8.98;;;3.55;;
82374;SDS011;72005;50.496;15.798;2024-01-25T11:21:37;7.15;;;2.10;;
82374;SDS011;72005;50.496;15.798;2024-01-25T11:24:05;10.13;;;4.03;;
82374;SDS011;72005;50.496;15.798;2024-01-25T11:26:34;12.15;;;2.80;;
82374;SDS011;72005;50.496;15.798;2024-01-25T11:29:00;16.23;;;6.18;;
82374;SDS011;72005;50.496;15.798;2024-01-25T11:31:29;9.10;;;4.90;;
82374;SDS011;72005;50.496;15.798;2024-01-25T11:33:58;13.95;;;6.93;;
82374;SDS011;72005;50.496;15.798;2024-01-25T11:36:25;11.45;;;5.18;;
82374;SDS011;72005;50.496;15.798;2024-01-25T11:38:51;25.55;;;8.65;;
82374;SDS011;72005;50.496;15.798;2024-01-25T11:41:18;24.17;;;8.07;;
82374;SDS011;72005;50.496;15.798;2024-01-25T11:43:44;16.92;;;6.47;;
82374;SDS011;72005;50.496;15.798;2024-01-25T11:46:09;11.68;;;3.20;;
82374;SDS011;72005;50.496;15.798;2024-01-25T11:48:39;13.20;;;5.93;;
82374;SDS011;72005;50.496;15.798;2024-01-25T11:51:06;7.88;;;3.92;;
82374;SDS011;72005;50.496;15.798;2024-01-25T11:53:34;10.63;;;4.90;;
82374;SDS011;72005;50.496;15.798;2024-01-25T11:55:59;17.13;;;5.88;;
82374;SDS011;72005;50.496;15.798;2024-01-25T11:58:25;16.00;;;7.20;;
82374;SDS011;72005;50.496;15.798;2024-01-25T12:00:53;77.50;;;26.88;;
82374;SDS011;72005;50.496;15.798;2024-01-25T12:03:20;16.15;;;6.72;;
82374;SDS011;72005;50.496;15.798;2024-01-25T12:05:46;19.02;;;4.82;;
82374;SDS011;72005;50.496;15.798;2024-01-25T12:08:12;14.07;;;5.18;;
82374;SDS011;72005;50.496;15.798;2024-01-25T12:10:39;11.70;;;5.32;;
82374;SDS011;72005;50.496;15.798;2024-01-25T12:13:08;10.30;;;4.22;;
82374;SDS011;72005;50.496;15.798;2024-01-25T12:15:35;22.45;;;8.70;;
82374;SDS011;72005;50.496;15.798;2024-01-25T12:18:01;14.10;;;6.45;;
82374;SDS011;72005;50.496;15.798;2024-01-25T12:20:28;16.13;;;6.35;;
82374;SDS011;72005;50.496;15.798;2024-01-25T12:22:54;14.05;;;6.53;;
82374;SDS011;72005;50.496;15.798;2024-01-25T12:25:20;8.50;;;4.53;;
82374;SDS011;72005;50.496;15.798;2024-01-25T12:27:47;8.95;;;2.53;;
82374;SDS011;72005;50.496;15.798;2024-01-25T12:30:15;14.45;;;4.70;;
82374;SDS011;72005;50.496;15.798;2024-01-25T12:32:40;13.82;;;5.28;;
82374;SDS011;72005;50.496;15.798;2024-01-25T12:35:06;15.05;;;6.20;;
82374;SDS011;72005;50.496;15.798;2024-01-25T12:37:34;12.85;;;5.10;;
82374;SDS011;72005;50.496;15.798;2024-01-25T12:40:00;16.65;;;7.18;;
82374;SDS011;72005;50.496;15.798;2024-01-25T12:42:25;22.77;;;9.02;;
82374;SDS011;72005;50.496;15.798;2024-01-25T12:44:54;12.75;;;6.32;;
82374;SDS011;72005;50.496;15.798;2024-01-25T12:47:22;21.13;;;9.23;;
82374;SDS011;72005;50.496;15.798;2024-01-25T12:49:48;17.77;;;6.38;;
82374;SDS011;72005;50.496;15.798;2024-01-25T12:52:14;21.23;;;7.95;;
82374;SDS011;72005;50.496;15.798;2024-01-25T12:54:40;19.48;;;8.07;;
82374;SDS011;72005;50.496;15.798;2024-01-25T12:57:06;21.90;;;8.63;;
82374;SDS011;72005;50.496;15.798;2024-01-25T12:59:33;13.23;;;6.47;;
82374;SDS011;72005;50.496;15.798;2024-01-25T13:02:00;14.20;;;6.45;;
82374;SDS011;72005;50.496;15.798;2024-01-25T13:04:27;11.77;;;4.93;;
82374;SDS011;72005;50.496;15.798;2024-01-25T13:06:53;16.50;;;7.18;;
82374;SDS011;72005;50.496;15.798;2024-01-25T13:09:21;15.10;;;6.82;;
82374;SDS011;72005;50.496;15.798;2024-01-25T13:11:47;21.58;;;8.07;;
82374;SDS011;72005;50.496;15.798;2024-01-25T13:14:13;21.83;;;8.60;;
82374;SDS011;72005;50.496;15.798;2024-01-25T13:16:39;12.98;;;5.22;;
82374;SDS011;72005;50.496;15.798;2024-01-25T13:19:05;18.92;;;7.20;;
82374;SDS011;72005;50.496;15.798;2024-01-25T13:21:31;14.07;;;4.88;;
82374;SDS011;72005;50.496;15.798;2024-01-25T13:24:00;23.58;;;8.52;;
82374;SDS011;72005;50.496;15.798;2024-01-25T13:26:26;25.00;;;11.10;;
82374;SDS011;72005;50.496;15.798;2024-01-25T13:28:52;13.88;;;4.93;;
82374;SDS011;72005;50.496;15.798;2024-01-25T13:31:18;37.58;;;15.60;;
82374;SDS011;72005;50.496;15.798;2024-01-25T13:33:44;19.85;;;6.65;;
82374;SDS011;72005;50.496;15.798;2024-01-25T13:36:10;36.17;;;18.40;;
82374;SDS011;72005;50.496;15.798;2024-01-25T13:38:39;28.17;;;12.68;;
82374;SDS011;72005;50.496;15.798;2024-01-25T13:41:07;21.85;;;10.43;;
82374;SDS011;72005;50.496;15.798;2024-01-25T13:43:33;21.20;;;9.48;;
82374;SDS011;72005;50.496;15.798;2024-01-25T13:45:58;18.45;;;6.95;;
82374;SDS011;72005;50.496;15.798;2024-01-25T13:48:24;37.47;;;14.75;;
82374;SDS011;72005;50.496;15.798;2024-01-25T13:50:50;36.30;;;14.13;;
82374;SDS011;72005;50.496;15.798;2024-01-25T13:53:16;23.20;;;7.60;;
82374;SDS011;72005;50.496;15.798;2024-01-25T13:55:42;18.45;;;7.03;;
82374;SDS011;72005;50.496;15.798;2024-01-25T13:58:09;13.38;;;6.00;;
82374;SDS011;72005;50.496;15.798;2024-01-25T14:00:35;22.23;;;9.90;;
82374;SDS011;72005;50.496;15.798;2024-01-25T14:03:01;38.65;;;17.65;;
82374;SDS011;72005;50.496;15.798;2024-01-25T14:05:27;29.13;;;15.30;;
82374;SDS011;72005;50.496;15.798;2024-01-25T14:07:53;20.40;;;9.98;;
82374;SDS011;72005;50.496;15.798;2024-01-25T14:10:19;33.95;;;17.75;;
82374;SDS011;72005;50.496;15.798;2024-01-25T14:12:45;19.27;;;10.40;;
82374;SDS011;72005;50.496;15.798;2024-01-25T14:15:12;18.60;;;8.73;;
82374;SDS011;72005;50.496;15.798;2024-01-25T14:17:38;29.35;;;16.40;;
82374;SDS011;72005;50.496;15.798;2024-01-25T14:20:04;33.95;;;15.85;;
82374;SDS011;72005;50.496;15.798;2024-01-25T14:22:30;10.75;;;4.97;;
82374;SDS011;72005;50.496;15.798;2024-01-25T14:24:56;17.13;;;4.72;;